Terminal Aerodrome Forecast
Issued by NWS

Home | Current Version | Previous Version | Graphics & Text | Print | Product List | Glossary On
Versions: 1 2 3 4 5 6 7 8 9 10 11 12 13 14 15 16 17 18
000
FTUS43 KTOP 062043 AAA
TAFFOE
TAF AMD
KFOE 062043Z 0621/0718 17015KT P6SM VCTS BKN040CB
     FM062130 27025G45KT 1SM +TSRA BKN015CB
      TEMPO 0622/0623 3SM TSRA BKN025CB
     FM062300 33010G18KT 5SM -SHRA VCTS OVC015CB
     FM070500 01010G18KT 5SM -SHRA BR OVC015
     FM071300 01010KT 6SM BR SCT008 BKN015=

USA.gov is the U.S. government's official web portal to all federal, state and local government web resources and services.